sensor_id;sensor_type;location;lat;lon;timestamp;P1;durP1;ratioP1;P2;durP2;ratioP2
65315;SDS011;51920;53.952;10.292;2023-04-25T00:01:04;14.10;;;6.00;;
65315;SDS011;51920;53.952;10.292;2023-04-25T00:03:31;15.15;;;6.05;;
65315;SDS011;51920;53.952;10.292;2023-04-25T00:05:58;12.60;;;5.93;;
65315;SDS011;51920;53.952;10.292;2023-04-25T00:08:29;14.32;;;6.05;;
65315;SDS011;51920;53.952;10.292;2023-04-25T00:10:56;15.57;;;5.10;;
65315;SDS011;51920;53.952;10.292;2023-04-25T00:13:23;19.98;;;5.18;;
65315;SDS011;51920;53.952;10.292;2023-04-25T00:15:51;15.70;;;5.28;;
65315;SDS011;51920;53.952;10.292;2023-04-25T00:18:19;11.45;;;4.50;;
65315;SDS011;51920;53.952;10.292;2023-04-25T00:20:46;11.85;;;4.32;;
65315;SDS011;51920;53.952;10.292;2023-04-25T00:23:13;15.93;;;4.10;;
65315;SDS011;51920;53.952;10.292;2023-04-25T00:25:48;12.82;;;4.30;;
65315;SDS011;51920;53.952;10.292;2023-04-25T00:28:15;15.18;;;4.63;;
65315;SDS011;51920;53.952;10.292;2023-04-25T00:30:42;14.55;;;4.18;;
65315;SDS011;51920;53.952;10.292;2023-04-25T00:33:10;15.57;;;4.00;;
65315;SDS011;51920;53.952;10.292;2023-04-25T00:35:36;13.23;;;3.87;;
65315;SDS011;51920;53.952;10.292;2023-04-25T00:38:04;17.40;;;4.05;;
65315;SDS011;51920;53.952;10.292;2023-04-25T00:40:30;11.85;;;3.97;;
65315;SDS011;51920;53.952;10.292;2023-04-25T00:42:57;13.23;;;3.72;;
65315;SDS011;51920;53.952;10.292;2023-04-25T00:45:27;10.27;;;4.05;;
65315;SDS011;51920;53.952;10.292;2023-04-25T00:47:56;11.97;;;3.60;;
65315;SDS011;51920;53.952;10.292;2023-04-25T00:50:23;13.60;;;3.63;;
65315;SDS011;51920;53.952;10.292;2023-04-25T00:52:50;12.70;;;3.60;;
65315;SDS011;51920;53.952;10.292;2023-04-25T00:55:18;14.48;;;3.65;;
65315;SDS011;51920;53.952;10.292;2023-04-25T00:57:45;14.30;;;3.58;;
65315;SDS011;51920;53.952;10.292;2023-04-25T01:00:13;12.77;;;3.33;;
65315;SDS011;51920;53.952;10.292;2023-04-25T01:02:40;15.75;;;3.60;;
65315;SDS011;51920;53.952;10.292;2023-04-25T01:05:08;10.45;;;3.65;;
65315;SDS011;51920;53.952;10.292;2023-04-25T01:07:35;12.90;;;3.13;;
65315;SDS011;51920;53.952;10.292;2023-04-25T01:10:02;12.68;;;4.00;;
65315;SDS011;51920;53.952;10.292;2023-04-25T01:12:29;10.53;;;3.27;;
65315;SDS011;51920;53.952;10.292;2023-04-25T01:14:56;13.52;;;4.22;;
65315;SDS011;51920;53.952;10.292;2023-04-25T01:17:23;16.52;;;4.10;;
65315;SDS011;51920;53.952;10.292;2023-04-25T01:19:50;10.27;;;3.45;;
65315;SDS011;51920;53.952;10.292;2023-04-25T01:22:17;17.30;;;3.75;;
65315;SDS011;51920;53.952;10.292;2023-04-25T01:24:45;13.47;;;3.80;;
65315;SDS011;51920;53.952;10.292;2023-04-25T01:27:12;15.75;;;3.85;;
65315;SDS011;51920;53.952;10.292;2023-04-25T01:29:39;12.68;;;4.05;;
65315;SDS011;51920;53.952;10.292;2023-04-25T01:32:06;14.45;;;3.75;;
65315;SDS011;51920;53.952;10.292;2023-04-25T01:34:33;14.90;;;3.90;;
65315;SDS011;51920;53.952;10.292;2023-04-25T01:37:00;14.03;;;4.07;;
65315;SDS011;51920;53.952;10.292;2023-04-25T01:39:29;15.40;;;3.47;;
65315;SDS011;51920;53.952;10.292;2023-04-25T01:41:56;18.85;;;3.83;;
65315;SDS011;51920;53.952;10.292;2023-04-25T01:44:23;13.43;;;3.85;;
65315;SDS011;51920;53.952;10.292;2023-04-25T01:46:49;13.10;;;3.90;;
65315;SDS011;51920;53.952;10.292;2023-04-25T01:49:16;16.20;;;3.60;;
65315;SDS011;51920;53.952;10.292;2023-04-25T01:51:43;15.10;;;4.22;;
65315;SDS011;51920;53.952;10.292;2023-04-25T01:54:10;14.88;;;3.58;;
65315;SDS011;51920;53.952;10.292;2023-04-25T01:56:37;14.55;;;4.00;;
65315;SDS011;51920;53.952;10.292;2023-04-25T01:59:06;14.63;;;3.47;;
65315;SDS011;51920;53.952;10.292;2023-04-25T02:02:08;12.30;;;3.70;;
65315;SDS011;51920;53.952;10.292;2023-04-25T02:04:35;14.05;;;3.78;;
65315;SDS011;51920;53.952;10.292;2023-04-25T02:07:03;15.15;;;4.35;;
65315;SDS011;51920;53.952;10.292;2023-04-25T02:09:46;13.93;;;3.75;;
65315;SDS011;51920;53.952;10.292;2023-04-25T02:12:14;13.43;;;3.38;;
65315;SDS011;51920;53.952;10.292;2023-04-25T02:15:02;15.37;;;3.50;;
65315;SDS011;51920;53.952;10.292;2023-04-25T02:17:39;14.40;;;3.60;;
65315;SDS011;51920;53.952;10.292;2023-04-25T02:20:06;12.00;;;3.55;;
65315;SDS011;51920;53.952;10.292;2023-04-25T02:22:33;13.88;;;3.55;;
65315;SDS011;51920;53.952;10.292;2023-04-25T02:25:01;14.15;;;3.90;;
65315;SDS011;51920;53.952;10.292;2023-04-25T02:27:28;10.53;;;3.17;;
65315;SDS011;51920;53.952;10.292;2023-04-25T02:29:55;17.40;;;3.50;;
65315;SDS011;51920;53.952;10.292;2023-04-25T02:32:22;18.85;;;4.28;;
65315;SDS011;51920;53.952;10.292;2023-04-25T02:34:49;10.98;;;3.30;;
65315;SDS011;51920;53.952;10.292;2023-04-25T02:37:16;12.15;;;3.45;;
65315;SDS011;51920;53.952;10.292;2023-04-25T02:39:44;13.93;;;3.27;;
65315;SDS011;51920;53.952;10.292;2023-04-25T02:42:11;12.23;;;3.65;;
65315;SDS011;51920;53.952;10.292;2023-04-25T02:44:37;15.95;;;3.72;;
65315;SDS011;51920;53.952;10.292;2023-04-25T02:47:04;14.15;;;3.67;;
65315;SDS011;51920;53.952;10.292;2023-04-25T02:49:30;14.73;;;3.58;;
65315;SDS011;51920;53.952;10.292;2023-04-25T02:51:57;10.67;;;2.83;;
65315;SDS011;51920;53.952;10.292;2023-04-25T02:54:24;15.52;;;3.40;;
65315;SDS011;51920;53.952;10.292;2023-04-25T02:56:50;12.02;;;3.53;;
65315;SDS011;51920;53.952;10.292;2023-04-25T02:59:23;13.23;;;3.30;;
65315;SDS011;51920;53.952;10.292;2023-04-25T03:01:49;18.92;;;3.50;;
65315;SDS011;51920;53.952;10.292;2023-04-25T03:04:16;11.30;;;2.97;;
65315;SDS011;51920;53.952;10.292;2023-04-25T03:06:45;19.55;;;4.78;;
65315;SDS011;51920;53.952;10.292;2023-04-25T03:09:11;12.27;;;3.67;;
65315;SDS011;51920;53.952;10.292;2023-04-25T03:11:38;14.35;;;3.53;;
65315;SDS011;51920;53.952;10.292;2023-04-25T03:14:05;13.50;;;3.22;;
65315;SDS011;51920;53.952;10.292;2023-04-25T03:16:31;12.30;;;3.20;;
65315;SDS011;51920;53.952;10.292;2023-04-25T03:18:58;17.92;;;3.80;;
65315;SDS011;51920;53.952;10.292;2023-04-25T03:21:25;14.80;;;3.80;;
65315;SDS011;51920;53.952;10.292;2023-04-25T03:23:52;10.82;;;3.28;;
65315;SDS011;51920;53.952;10.292;2023-04-25T03:26:19;10.95;;;3.20;;
65315;SDS011;51920;53.952;10.292;2023-04-25T03:28:47;10.37;;;3.27;;
65315;SDS011;51920;53.952;10.292;2023-04-25T03:31:13;12.02;;;3.58;;
65315;SDS011;51920;53.952;10.292;2023-04-25T03:33:40;13.80;;;3.40;;
65315;SDS011;51920;53.952;10.292;2023-04-25T03:36:06;15.20;;;3.30;;
65315;SDS011;51920;53.952;10.292;2023-04-25T03:38:33;15.70;;;3.80;;
65315;SDS011;51920;53.952;10.292;2023-04-25T03:41:01;11.00;;;3.07;;
65315;SDS011;51920;53.952;10.292;2023-04-25T03:43:37;14.57;;;3.65;;
65315;SDS011;51920;53.952;10.292;2023-04-25T03:46:09;10.80;;;3.42;;
65315;SDS011;51920;53.952;10.292;2023-04-25T03:48:36;15.05;;;3.33;;
65315;SDS011;51920;53.952;10.292;2023-04-25T03:51:03;13.88;;;3.60;;
65315;SDS011;51920;53.952;10.292;2023-04-25T03:53:32;14.70;;;3.47;;
65315;SDS011;51920;53.952;10.292;2023-04-25T03:56:13;12.25;;;3.38;;
65315;SDS011;51920;53.952;10.292;2023-04-25T03:58:41;11.45;;;3.40;;
65315;SDS011;51920;53.952;10.292;2023-04-25T04:01:07;9.45;;;3.28;;
65315;SDS011;51920;53.952;10.292;2023-04-25T04:03:36;10.30;;;3.47;;
65315;SDS011;51920;53.952;10.292;2023-04-25T04:06:04;13.23;;;3.17;;
65315;SDS011;51920;53.952;10.292;2023-04-25T04:08:35;10.07;;;3.33;;
65315;SDS011;51920;53.952;10.292;2023-04-25T04:11:02;13.90;;;3.50;;
65315;SDS011;51920;53.952;10.292;2023-04-25T04:13:28;14.77;;;3.33;;
65315;SDS011;51920;53.952;10.292;2023-04-25T04:15:56;12.30;;;3.50;;
65315;SDS011;51920;53.952;10.292;2023-04-25T04:18:23;11.03;;;3.10;;
65315;SDS011;51920;53.952;10.292;2023-04-25T04:20:50;12.95;;;3.50;;
65315;SDS011;51920;53.952;10.292;2023-04-25T04:23:17;13.48;;;3.72;;
65315;SDS011;51920;53.952;10.292;2023-04-25T04:25:43;15.70;;;3.50;;
65315;SDS011;51920;53.952;10.292;2023-04-25T04:28:26;16.85;;;3.40;;
65315;SDS011;51920;53.952;10.292;2023-04-25T04:31:01;19.53;;;3.63;;
65315;SDS011;51920;53.952;10.292;2023-04-25T04:33:28;10.05;;;3.20;;
65315;SDS011;51920;53.952;10.292;2023-04-25T04:36:01;13.75;;;3.45;;
65315;SDS011;51920;53.952;10.292;2023-04-25T04:38:29;12.27;;;3.42;;
65315;SDS011;51920;53.952;10.292;2023-04-25T04:40:59;15.40;;;3.20;;
65315;SDS011;51920;53.952;10.292;2023-04-25T04:43:53;15.97;;;3.67;;
65315;SDS011;51920;53.952;10.292;2023-04-25T04:46:34;9.25;;;3.08;;
65315;SDS011;51920;53.952;10.292;2023-04-25T04:49:25;12.55;;;2.95;;
65315;SDS011;51920;53.952;10.292;2023-04-25T04:52:06;11.00;;;3.30;;
65315;SDS011;51920;53.952;10.292;2023-04-25T04:54:50;12.98;;;3.28;;
65315;SDS011;51920;53.952;10.292;2023-04-25T04:57:34;8.70;;;3.27;;
65315;SDS011;51920;53.952;10.292;2023-04-25T05:00:13;11.23;;;3.28;;
65315;SDS011;51920;53.952;10.292;2023-04-25T05:03:00;9.77;;;3.20;;
65315;SDS011;51920;53.952;10.292;2023-04-25T05:05:58;7.75;;;3.22;;
65315;SDS011;51920;53.952;10.292;2023-04-25T05:08:50;10.00;;;2.90;;
65315;SDS011;51920;53.952;10.292;2023-04-25T05:11:17;10.53;;;2.67;;
65315;SDS011;51920;53.952;10.292;2023-04-25T05:14:11;14.00;;;2.97;;
65315;SDS011;51920;53.952;10.292;2023-04-25T05:17:02;8.02;;;2.80;;
65315;SDS011;51920;53.952;10.292;2023-04-25T05:19:50;9.73;;;2.47;;
65315;SDS011;51920;53.952;10.292;2023-04-25T05:22:32;12.80;;;3.10;;
65315;SDS011;51920;53.952;10.292;2023-04-25T05:25:12;10.10;;;2.67;;
65315;SDS011;51920;53.952;10.292;2023-04-25T05:28:02;12.52;;;3.00;;
65315;SDS011;51920;53.952;10.292;2023-04-25T05:31:07;6.57;;;2.85;;
65315;SDS011;51920;53.952;10.292;2023-04-25T05:33:54;13.98;;;3.08;;
65315;SDS011;51920;53.952;10.292;2023-04-25T05:36:25;8.65;;;2.95;;
65315;SDS011;51920;53.952;10.292;2023-04-25T05:38:52;14.27;;;3.30;;
65315;SDS011;51920;53.952;10.292;2023-04-25T05:41:19;8.35;;;3.00;;
65315;SDS011;51920;53.952;10.292;2023-04-25T05:44:21;9.88;;;3.03;;
65315;SDS011;51920;53.952;10.292;2023-04-25T05:47:00;8.55;;;2.72;;
65315;SDS011;51920;53.952;10.292;2023-04-25T05:49:45;9.48;;;2.78;;
65315;SDS011;51920;53.952;10.292;2023-04-25T05:52:32;8.50;;;2.70;;
65315;SDS011;51920;53.952;10.292;2023-04-25T05:55:06;18.80;;;2.95;;
65315;SDS011;51920;53.952;10.292;2023-04-25T05:57:33;11.43;;;3.15;;
65315;SDS011;51920;53.952;10.292;2023-04-25T06:00:00;13.10;;;2.67;;
65315;SDS011;51920;53.952;10.292;2023-04-25T06:02:38;10.20;;;3.58;;
65315;SDS011;51920;53.952;10.292;2023-04-25T06:05:06;9.70;;;2.90;;
65315;SDS011;51920;53.952;10.292;2023-04-25T06:07:33;11.20;;;3.22;;
65315;SDS011;51920;53.952;10.292;2023-04-25T06:10:01;9.07;;;2.88;;
65315;SDS011;51920;53.952;10.292;2023-04-25T06:12:30;10.52;;;3.00;;
65315;SDS011;51920;53.952;10.292;2023-04-25T06:14:56;11.85;;;2.90;;
65315;SDS011;51920;53.952;10.292;2023-04-25T06:17:23;16.60;;;4.73;;
65315;SDS011;51920;53.952;10.292;2023-04-25T06:19:50;11.43;;;3.03;;
65315;SDS011;51920;53.952;10.292;2023-04-25T06:22:17;8.32;;;2.90;;
65315;SDS011;51920;53.952;10.292;2023-04-25T06:24:44;13.95;;;2.97;;
65315;SDS011;51920;53.952;10.292;2023-04-25T06:27:12;8.52;;;3.20;;
65315;SDS011;51920;53.952;10.292;2023-04-25T06:29:39;11.93;;;3.00;;
65315;SDS011;51920;53.952;10.292;2023-04-25T06:32:06;9.57;;;2.60;;
65315;SDS011;51920;53.952;10.292;2023-04-25T06:34:33;8.52;;;2.90;;
65315;SDS011;51920;53.952;10.292;2023-04-25T06:37:00;10.00;;;3.10;;
65315;SDS011;51920;53.952;10.292;2023-04-25T06:39:28;8.63;;;3.03;;
65315;SDS011;51920;53.952;10.292;2023-04-25T06:41:55;10.40;;;3.10;;
65315;SDS011;51920;53.952;10.292;2023-04-25T06:44:48;8.73;;;2.83;;
65315;SDS011;51920;53.952;10.292;2023-04-25T06:47:16;9.95;;;3.53;;
65315;SDS011;51920;53.952;10.292;2023-04-25T06:49:43;9.25;;;2.80;;
65315;SDS011;51920;53.952;10.292;2023-04-25T06:52:10;11.57;;;3.13;;
65315;SDS011;51920;53.952;10.292;2023-04-25T06:54:37;7.13;;;2.50;;
65315;SDS011;51920;53.952;10.292;2023-04-25T06:57:16;9.07;;;2.42;;
65315;SDS011;51920;53.952;10.292;2023-04-25T06:59:43;8.52;;;2.55;;
65315;SDS011;51920;53.952;10.292;2023-04-25T07:02:10;10.18;;;2.58;;
65315;SDS011;51920;53.952;10.292;2023-04-25T07:04:37;12.13;;;2.40;;
65315;SDS011;51920;53.952;10.292;2023-04-25T07:07:04;8.27;;;2.20;;
65315;SDS011;51920;53.952;10.292;2023-04-25T07:09:37;10.10;;;2.00;;
65315;SDS011;51920;53.952;10.292;2023-04-25T07:12:07;13.35;;;2.90;;
65315;SDS011;51920;53.952;10.292;2023-04-25T07:14:33;7.03;;;2.35;;
65315;SDS011;51920;53.952;10.292;2023-04-25T07:17:01;9.90;;;2.53;;
65315;SDS011;51920;53.952;10.292;2023-04-25T07:19:30;9.90;;;2.67;;
65315;SDS011;51920;53.952;10.292;2023-04-25T07:22:00;8.43;;;2.80;;
65315;SDS011;51920;53.952;10.292;2023-04-25T07:24:27;8.23;;;2.65;;
65315;SDS011;51920;53.952;10.292;2023-04-25T07:26:55;7.72;;;2.65;;
65315;SDS011;51920;53.952;10.292;2023-04-25T07:29:40;11.70;;;2.92;;
65315;SDS011;51920;53.952;10.292;2023-04-25T07:32:08;9.13;;;2.50;;
65315;SDS011;51920;53.952;10.292;2023-04-25T07:34:34;9.23;;;2.65;;
65315;SDS011;51920;53.952;10.292;2023-04-25T07:37:03;7.13;;;2.72;;
65315;SDS011;51920;53.952;10.292;2023-04-25T07:39:38;8.48;;;2.53;;
65315;SDS011;51920;53.952;10.292;2023-04-25T07:42:05;8.32;;;2.60;;
65315;SDS011;51920;53.952;10.292;2023-04-25T07:44:34;10.53;;;2.30;;
65315;SDS011;51920;53.952;10.292;2023-04-25T07:47:06;7.78;;;2.33;;
65315;SDS011;51920;53.952;10.292;2023-04-25T07:49:34;11.05;;;2.50;;
65315;SDS011;51920;53.952;10.292;2023-04-25T07:52:02;10.35;;;2.40;;
65315;SDS011;51920;53.952;10.292;2023-04-25T07:54:29;7.75;;;2.88;;
65315;SDS011;51920;53.952;10.292;2023-04-25T07:57:02;7.37;;;2.67;;
65315;SDS011;51920;53.952;10.292;2023-04-25T07:59:29;8.40;;;2.67;;
65315;SDS011;51920;53.952;10.292;2023-04-25T08:01:59;8.20;;;2.70;;
65315;SDS011;51920;53.952;10.292;2023-04-25T08:04:27;9.38;;;2.45;;
65315;SDS011;51920;53.952;10.292;2023-04-25T08:06:58;6.47;;;2.28;;
65315;SDS011;51920;53.952;10.292;2023-04-25T08:09:30;10.20;;;2.73;;
65315;SDS011;51920;53.952;10.292;2023-04-25T08:12:03;8.07;;;2.33;;
65315;SDS011;51920;53.952;10.292;2023-04-25T08:14:31;7.82;;;2.40;;
65315;SDS011;51920;53.952;10.292;2023-04-25T08:17:05;7.18;;;2.13;;
65315;SDS011;51920;53.952;10.292;2023-04-25T08:19:37;8.40;;;2.10;;
65315;SDS011;51920;53.952;10.292;2023-04-25T08:22:05;9.73;;;2.00;;
65315;SDS011;51920;53.952;10.292;2023-04-25T08:24:42;5.80;;;2.40;;
65315;SDS011;51920;53.952;10.292;2023-04-25T08:27:09;9.35;;;2.30;;
65315;SDS011;51920;53.952;10.292;2023-04-25T08:29:36;7.00;;;1.92;;
65315;SDS011;51920;53.952;10.292;2023-04-25T08:32:02;7.28;;;2.30;;
65315;SDS011;51920;53.952;10.292;2023-04-25T08:34:30;7.17;;;2.40;;
65315;SDS011;51920;53.952;10.292;2023-04-25T08:37:01;7.32;;;1.95;;
65315;SDS011;51920;53.952;10.292;2023-04-25T08:39:42;6.03;;;2.17;;
65315;SDS011;51920;53.952;10.292;2023-04-25T08:42:12;6.95;;;1.80;;
65315;SDS011;51920;53.952;10.292;2023-04-25T08:44:39;9.20;;;2.25;;
65315;SDS011;51920;53.952;10.292;2023-04-25T08:47:06;8.43;;;1.93;;
65315;SDS011;51920;53.952;10.292;2023-04-25T08:49:40;7.93;;;2.42;;
65315;SDS011;51920;53.952;10.292;2023-04-25T08:52:13;6.38;;;1.90;;
65315;SDS011;51920;53.952;10.292;2023-04-25T08:54:44;7.30;;;2.10;;
65315;SDS011;51920;53.952;10.292;2023-04-25T08:57:16;6.53;;;1.80;;
65315;SDS011;51920;53.952;10.292;2023-04-25T08:59:44;7.37;;;1.83;;
65315;SDS011;51920;53.952;10.292;2023-04-25T09:02:13;9.38;;;2.60;;
65315;SDS011;51920;53.952;10.292;2023-04-25T09:04:47;11.88;;;3.22;;
65315;SDS011;51920;53.952;10.292;2023-04-25T09:07:13;11.32;;;2.20;;
65315;SDS011;51920;53.952;10.292;2023-04-25T09:09:44;6.90;;;2.20;;
65315;SDS011;51920;53.952;10.292;2023-04-25T09:12:12;7.03;;;2.40;;
65315;SDS011;51920;53.952;10.292;2023-04-25T09:14:39;10.85;;;2.40;;
65315;SDS011;51920;53.952;10.292;2023-04-25T09:17:19;9.77;;;2.40;;
65315;SDS011;51920;53.952;10.292;2023-04-25T09:19:48;10.15;;;2.50;;
65315;SDS011;51920;53.952;10.292;2023-04-25T09:22:29;6.80;;;2.22;;
65315;SDS011;51920;53.952;10.292;2023-04-25T09:24:57;9.20;;;2.60;;
65315;SDS011;51920;53.952;10.292;2023-04-25T09:27:27;7.93;;;2.05;;
65315;SDS011;51920;53.952;10.292;2023-04-25T09:30:11;7.38;;;2.10;;
65315;SDS011;51920;53.952;10.292;2023-04-25T09:33:05;5.85;;;1.70;;
65315;SDS011;51920;53.952;10.292;2023-04-25T09:35:36;7.68;;;2.05;;
65315;SDS011;51920;53.952;10.292;2023-04-25T09:40:55;7.65;;;2.30;;
65315;SDS011;51920;53.952;10.292;2023-04-25T09:43:32;7.05;;;1.90;;
65315;SDS011;51920;53.952;10.292;2023-04-25T09:45:59;8.85;;;2.05;;
65315;SDS011;51920;53.952;10.292;2023-04-25T09:48:29;7.00;;;2.10;;
65315;SDS011;51920;53.952;10.292;2023-04-25T09:53:40;4.65;;;2.05;;
65315;SDS011;51920;53.952;10.292;2023-04-25T09:56:16;4.00;;;1.70;;
65315;SDS011;51920;53.952;10.292;2023-04-25T09:58:47;4.03;;;1.80;;
65315;SDS011;51920;53.952;10.292;2023-04-25T10:01:16;3.92;;;2.00;;
65315;SDS011;51920;53.952;10.292;2023-04-25T10:03:56;5.70;;;1.77;;
65315;SDS011;51920;53.952;10.292;2023-04-25T10:06:45;5.00;;;1.90;;
65315;SDS011;51920;53.952;10.292;2023-04-25T10:09:16;5.30;;;2.00;;
65315;SDS011;51920;53.952;10.292;2023-04-25T10:11:46;4.90;;;1.80;;
65315;SDS011;51920;53.952;10.292;2023-04-25T10:14:17;5.40;;;1.90;;
65315;SDS011;51920;53.952;10.292;2023-04-25T10:17:09;9.03;;;2.00;;
65315;SDS011;51920;53.952;10.292;2023-04-25T10:19:37;3.97;;;1.70;;
65315;SDS011;51920;53.952;10.292;2023-04-25T10:22:05;5.32;;;2.10;;
65315;SDS011;51920;53.952;10.292;2023-04-25T10:24:35;5.95;;;1.90;;
65315;SDS011;51920;53.952;10.292;2023-04-25T10:27:03;5.35;;;1.75;;
65315;SDS011;51920;53.952;10.292;2023-04-25T10:29:30;4.17;;;1.50;;
65315;SDS011;51920;53.952;10.292;2023-04-25T10:31:57;7.10;;;1.90;;
65315;SDS011;51920;53.952;10.292;2023-04-25T10:34:25;6.10;;;2.08;;
65315;SDS011;51920;53.952;10.292;2023-04-25T10:37:08;6.25;;;1.83;;
65315;SDS011;51920;53.952;10.292;2023-04-25T10:39:37;5.15;;;2.25;;
65315;SDS011;51920;53.952;10.292;2023-04-25T10:42:05;6.10;;;2.00;;
65315;SDS011;51920;53.952;10.292;2023-04-25T10:44:34;8.20;;;2.60;;
65315;SDS011;51920;53.952;10.292;2023-04-25T10:47:02;7.15;;;2.30;;
65315;SDS011;51920;53.952;10.292;2023-04-25T10:49:41;5.03;;;1.90;;
65315;SDS011;51920;53.952;10.292;2023-04-25T10:52:12;8.20;;;2.60;;
65315;SDS011;51920;53.952;10.292;2023-04-25T10:55:06;6.73;;;2.07;;
65315;SDS011;51920;53.952;10.292;2023-04-25T10:57:40;7.18;;;2.13;;
65315;SDS011;51920;53.952;10.292;2023-04-25T11:02:46;3.72;;;1.80;;
65315;SDS011;51920;53.952;10.292;2023-04-25T11:05:29;4.60;;;1.80;;
65315;SDS011;51920;53.952;10.292;2023-04-25T11:07:59;7.83;;;2.20;;
65315;SDS011;51920;53.952;10.292;2023-04-25T11:10:33;6.07;;;2.03;;
65315;SDS011;51920;53.952;10.292;2023-04-25T11:13:01;4.55;;;1.77;;
65315;SDS011;51920;53.952;10.292;2023-04-25T11:15:28;5.20;;;1.50;;
65315;SDS011;51920;53.952;10.292;2023-04-25T11:17:55;5.57;;;1.60;;
65315;SDS011;51920;53.952;10.292;2023-04-25T11:20:24;4.53;;;1.40;;
65315;SDS011;51920;53.952;10.292;2023-04-25T11:22:52;5.20;;;1.60;;
65315;SDS011;51920;53.952;10.292;2023-04-25T11:25:19;7.22;;;1.90;;
65315;SDS011;51920;53.952;10.292;2023-04-25T11:30:16;3.92;;;1.83;;
65315;SDS011;51920;53.952;10.292;2023-04-25T11:32:46;2.80;;;1.60;;
65315;SDS011;51920;53.952;10.292;2023-04-25T11:35:13;2.83;;;1.50;;
65315;SDS011;51920;53.952;10.292;2023-04-25T11:37:40;2.95;;;1.52;;
65315;SDS011;51920;53.952;10.292;2023-04-25T11:40:07;5.30;;;1.60;;
65315;SDS011;51920;53.952;10.292;2023-04-25T11:42:39;3.20;;;1.58;;
65315;SDS011;51920;53.952;10.292;2023-04-25T11:45:09;3.60;;;1.40;;
65315;SDS011;51920;53.952;10.292;2023-04-25T11:47:37;4.43;;;1.40;;
65315;SDS011;51920;53.952;10.292;2023-04-25T11:50:05;3.40;;;1.60;;
65315;SDS011;51920;53.952;10.292;2023-04-25T11:52:40;3.25;;;1.55;;
65315;SDS011;51920;53.952;10.292;2023-04-25T11:55:18;3.92;;;1.52;;
65315;SDS011;51920;53.952;10.292;2023-04-25T11:57:48;3.37;;;1.30;;
65315;SDS011;51920;53.952;10.292;2023-04-25T12:00:17;2.85;;;1.30;;
65315;SDS011;51920;53.952;10.292;2023-04-25T12:02:47;4.78;;;1.48;;
65315;SDS011;51920;53.952;10.292;2023-04-25T12:05:17;3.50;;;1.50;;
65315;SDS011;51920;53.952;10.292;2023-04-25T12:07:46;6.20;;;1.50;;
65315;SDS011;51920;53.952;10.292;2023-04-25T12:10:14;3.60;;;1.30;;
65315;SDS011;51920;53.952;10.292;2023-04-25T12:12:42;4.90;;;1.70;;
65315;SDS011;51920;53.952;10.292;2023-04-25T12:17:36;5.07;;;1.63;;
65315;SDS011;51920;53.952;10.292;2023-04-25T12:20:08;7.72;;;1.80;;
65315;SDS011;51920;53.952;10.292;2023-04-25T12:22:36;3.40;;;1.57;;
65315;SDS011;51920;53.952;10.292;2023-04-25T12:25:04;6.18;;;1.90;;
65315;SDS011;51920;53.952;10.292;2023-04-25T12:27:31;6.03;;;1.80;;
65315;SDS011;51920;53.952;10.292;2023-04-25T12:29:58;5.00;;;1.83;;
65315;SDS011;51920;53.952;10.292;2023-04-25T12:32:27;3.75;;;1.70;;
65315;SDS011;51920;53.952;10.292;2023-04-25T12:34:54;5.83;;;1.50;;
65315;SDS011;51920;53.952;10.292;2023-04-25T12:37:22;4.93;;;1.58;;
65315;SDS011;51920;53.952;10.292;2023-04-25T12:39:48;4.18;;;1.75;;
65315;SDS011;51920;53.952;10.292;2023-04-25T12:42:15;5.30;;;1.70;;
65315;SDS011;51920;53.952;10.292;2023-04-25T12:44:42;4.57;;;1.70;;
65315;SDS011;51920;53.952;10.292;2023-04-25T12:47:08;5.03;;;1.90;;
65315;SDS011;51920;53.952;10.292;2023-04-25T12:49:35;3.25;;;1.40;;
65315;SDS011;51920;53.952;10.292;2023-04-25T12:52:02;2.83;;;1.40;;
65315;SDS011;51920;53.952;10.292;2023-04-25T12:54:29;4.15;;;1.40;;
65315;SDS011;51920;53.952;10.292;2023-04-25T12:56:56;3.63;;;1.58;;
65315;SDS011;51920;53.952;10.292;2023-04-25T12:59:23;4.73;;;2.03;;
65315;SDS011;51920;53.952;10.292;2023-04-25T13:01:49;5.20;;;1.60;;
65315;SDS011;51920;53.952;10.292;2023-04-25T13:04:16;4.88;;;1.55;;
65315;SDS011;51920;53.952;10.292;2023-04-25T13:06:44;5.28;;;1.40;;
65315;SDS011;51920;53.952;10.292;2023-04-25T13:09:10;3.75;;;1.60;;
65315;SDS011;51920;53.952;10.292;2023-04-25T13:11:38;6.60;;;1.60;;
65315;SDS011;51920;53.952;10.292;2023-04-25T13:14:05;6.95;;;1.80;;
65315;SDS011;51920;53.952;10.292;2023-04-25T13:16:31;5.38;;;1.70;;
65315;SDS011;51920;53.952;10.292;2023-04-25T13:18:58;6.20;;;1.85;;
65315;SDS011;51920;53.952;10.292;2023-04-25T13:21:29;2.65;;;1.50;;
65315;SDS011;51920;53.952;10.292;2023-04-25T13:23:57;4.53;;;1.70;;
65315;SDS011;51920;53.952;10.292;2023-04-25T13:26:23;5.70;;;1.85;;
65315;SDS011;51920;53.952;10.292;2023-04-25T13:28:50;4.38;;;1.40;;
65315;SDS011;51920;53.952;10.292;2023-04-25T13:31:17;5.78;;;1.67;;
65315;SDS011;51920;53.952;10.292;2023-04-25T13:33:43;4.72;;;2.22;;
65315;SDS011;51920;53.952;10.292;2023-04-25T13:36:10;5.53;;;1.70;;
65315;SDS011;51920;53.952;10.292;2023-04-25T13:38:37;7.95;;;1.77;;
65315;SDS011;51920;53.952;10.292;2023-04-25T13:41:05;5.53;;;2.08;;
65315;SDS011;51920;53.952;10.292;2023-04-25T13:43:33;8.13;;;1.85;;
65315;SDS011;51920;53.952;10.292;2023-04-25T13:46:01;4.32;;;1.70;;
65315;SDS011;51920;53.952;10.292;2023-04-25T13:48:29;6.57;;;1.73;;
65315;SDS011;51920;53.952;10.292;2023-04-25T13:50:55;6.35;;;1.60;;
65315;SDS011;51920;53.952;10.292;2023-04-25T13:53:22;6.97;;;2.05;;
65315;SDS011;51920;53.952;10.292;2023-04-25T13:55:49;4.07;;;1.98;;
65315;SDS011;51920;53.952;10.292;2023-04-25T13:58:17;6.43;;;2.25;;
65315;SDS011;51920;53.952;10.292;2023-04-25T14:00:44;5.60;;;1.80;;
65315;SDS011;51920;53.952;10.292;2023-04-25T14:03:12;7.38;;;1.90;;
65315;SDS011;51920;53.952;10.292;2023-04-25T14:05:38;3.90;;;2.30;;
65315;SDS011;51920;53.952;10.292;2023-04-25T14:08:06;6.63;;;2.03;;
65315;SDS011;51920;53.952;10.292;2023-04-25T14:10:34;8.70;;;1.85;;
65315;SDS011;51920;53.952;10.292;2023-04-25T14:13:02;7.90;;;2.00;;
65315;SDS011;51920;53.952;10.292;2023-04-25T14:15:30;6.95;;;2.42;;
65315;SDS011;51920;53.952;10.292;2023-04-25T14:17:58;7.43;;;2.60;;
65315;SDS011;51920;53.952;10.292;2023-04-25T14:20:25;6.90;;;2.15;;
65315;SDS011;51920;53.952;10.292;2023-04-25T14:22:52;5.82;;;1.88;;
65315;SDS011;51920;53.952;10.292;2023-04-25T14:25:20;7.70;;;2.00;;
65315;SDS011;51920;53.952;10.292;2023-04-25T14:27:47;5.95;;;2.00;;
65315;SDS011;51920;53.952;10.292;2023-04-25T14:30:19;3.70;;;1.80;;
65315;SDS011;51920;53.952;10.292;2023-04-25T14:32:48;4.57;;;1.80;;
65315;SDS011;51920;53.952;10.292;2023-04-25T14:35:15;4.60;;;1.65;;
65315;SDS011;51920;53.952;10.292;2023-04-25T14:37:42;4.20;;;1.70;;
65315;SDS011;51920;53.952;10.292;2023-04-25T14:40:08;4.30;;;1.60;;
65315;SDS011;51920;53.952;10.292;2023-04-25T14:42:36;6.60;;;1.80;;
65315;SDS011;51920;53.952;10.292;2023-04-25T14:45:04;4.25;;;1.60;;
65315;SDS011;51920;53.952;10.292;2023-04-25T14:47:32;5.20;;;1.50;;
65315;SDS011;51920;53.952;10.292;2023-04-25T14:49:59;6.30;;;1.67;;
65315;SDS011;51920;53.952;10.292;2023-04-25T14:52:27;5.63;;;1.95;;
65315;SDS011;51920;53.952;10.292;2023-04-25T14:54:57;6.07;;;2.10;;
65315;SDS011;51920;53.952;10.292;2023-04-25T14:57:26;3.80;;;1.60;;
65315;SDS011;51920;53.952;10.292;2023-04-25T14:59:52;5.32;;;1.85;;